sensor_id;sensor_type;location;lat;lon;timestamp;P1;durP1;ratioP1;P2;durP2;ratioP2
52534;SDS011;38443;53.164;5.802;2022-08-04T00:00:02;12.52;;;5.40;;
52534;SDS011;38443;53.164;5.802;2022-08-04T00:07:53;12.48;;;5.15;;
52534;SDS011;38443;53.164;5.802;2022-08-04T00:10:22;8.88;;;6.00;;
52534;SDS011;38443;53.164;5.802;2022-08-04T00:12:50;12.02;;;5.35;;
52534;SDS011;38443;53.164;5.802;2022-08-04T00:15:19;9.50;;;5.57;;
52534;SDS011;38443;53.164;5.802;2022-08-04T00:17:48;9.75;;;4.90;;
52534;SDS011;38443;53.164;5.802;2022-08-04T00:20:18;19.40;;;15.02;;
52534;SDS011;38443;53.164;5.802;2022-08-04T00:22:46;17.88;;;16.50;;
52534;SDS011;38443;53.164;5.802;2022-08-04T00:25:13;11.70;;;5.80;;
52534;SDS011;38443;53.164;5.802;2022-08-04T00:27:39;8.48;;;5.10;;
52534;SDS011;38443;53.164;5.802;2022-08-04T00:30:05;6.95;;;5.07;;
52534;SDS011;38443;53.164;5.802;2022-08-04T00:32:30;7.85;;;4.93;;
52534;SDS011;38443;53.164;5.802;2022-08-04T00:34:56;12.43;;;5.38;;
52534;SDS011;38443;53.164;5.802;2022-08-04T00:37:23;10.82;;;5.70;;
52534;SDS011;38443;53.164;5.802;2022-08-04T00:39:51;13.70;;;5.63;;
52534;SDS011;38443;53.164;5.802;2022-08-04T00:56:35;1451.35;;;874.55;;
52534;SDS011;38443;53.164;5.802;2022-08-04T01:02:00;1730.45;;;815.83;;
52534;SDS011;38443;53.164;5.802;2022-08-04T01:04:48;1999.90;;;999.90;;
52534;SDS011;38443;53.164;5.802;2022-08-04T01:10:04;1999.90;;;999.90;;
52534;SDS011;38443;53.164;5.802;2022-08-04T01:15:44;919.08;;;806.22;;
52534;SDS011;38443;53.164;5.802;2022-08-04T01:18:35;710.28;;;651.22;;
52534;SDS011;38443;53.164;5.802;2022-08-04T01:26:42;290.40;;;275.15;;
52534;SDS011;38443;53.164;5.802;2022-08-04T01:29:14;104.97;;;100.45;;
52534;SDS011;38443;53.164;5.802;2022-08-04T01:31:41;77.95;;;74.35;;
52534;SDS011;38443;53.164;5.802;2022-08-04T01:34:23;60.35;;;57.45;;
52534;SDS011;38443;53.164;5.802;2022-08-04T01:37:27;50.03;;;47.33;;
52534;SDS011;38443;53.164;5.802;2022-08-04T01:40:13;46.70;;;44.40;;
52534;SDS011;38443;53.164;5.802;2022-08-04T01:42:40;31.38;;;29.38;;
52534;SDS011;38443;53.164;5.802;2022-08-04T01:45:08;28.10;;;26.23;;
52534;SDS011;38443;53.164;5.802;2022-08-04T01:47:36;21.40;;;19.65;;
52534;SDS011;38443;53.164;5.802;2022-08-04T01:50:05;10.98;;;8.82;;
52534;SDS011;38443;53.164;5.802;2022-08-04T01:52:37;16.55;;;12.50;;
52534;SDS011;38443;53.164;5.802;2022-08-04T01:55:04;17.10;;;13.73;;
52534;SDS011;38443;53.164;5.802;2022-08-04T01:57:33;13.40;;;9.68;;
52534;SDS011;38443;53.164;5.802;2022-08-04T02:00:01;15.50;;;10.27;;
52534;SDS011;38443;53.164;5.802;2022-08-04T02:02:45;14.10;;;9.13;;
52534;SDS011;38443;53.164;5.802;2022-08-04T02:05:11;13.90;;;9.57;;
52534;SDS011;38443;53.164;5.802;2022-08-04T02:10:26;12.18;;;6.88;;
52534;SDS011;38443;53.164;5.802;2022-08-04T02:13:38;14.52;;;6.20;;
52534;SDS011;38443;53.164;5.802;2022-08-04T02:15:52;12.52;;;5.88;;
52534;SDS011;38443;53.164;5.802;2022-08-04T02:18:28;9.80;;;5.53;;
52534;SDS011;38443;53.164;5.802;2022-08-04T02:20:59;10.82;;;6.22;;
52534;SDS011;38443;53.164;5.802;2022-08-04T02:23:44;8.93;;;4.95;;
52534;SDS011;38443;53.164;5.802;2022-08-04T02:26:16;9.32;;;4.80;;
52534;SDS011;38443;53.164;5.802;2022-08-04T02:31:26;9.77;;;5.00;;
52534;SDS011;38443;53.164;5.802;2022-08-04T02:36:35;10.07;;;4.75;;
52534;SDS011;38443;53.164;5.802;2022-08-04T02:39:03;11.63;;;4.70;;
52534;SDS011;38443;53.164;5.802;2022-08-04T02:41:31;10.27;;;5.07;;
52534;SDS011;38443;53.164;5.802;2022-08-04T02:44:02;9.10;;;4.97;;
52534;SDS011;38443;53.164;5.802;2022-08-04T02:46:29;9.55;;;4.78;;
52534;SDS011;38443;53.164;5.802;2022-08-04T02:48:56;9.55;;;5.45;;
52534;SDS011;38443;53.164;5.802;2022-08-04T02:51:23;9.65;;;4.97;;
52534;SDS011;38443;53.164;5.802;2022-08-04T02:53:54;12.73;;;4.90;;
52534;SDS011;38443;53.164;5.802;2022-08-04T02:56:22;7.50;;;4.82;;
52534;SDS011;38443;53.164;5.802;2022-08-04T02:58:50;10.30;;;5.10;;
52534;SDS011;38443;53.164;5.802;2022-08-04T03:01:17;9.35;;;5.20;;
52534;SDS011;38443;53.164;5.802;2022-08-04T03:03:47;9.70;;;5.22;;
52534;SDS011;38443;53.164;5.802;2022-08-04T03:06:27;10.40;;;5.43;;
52534;SDS011;38443;53.164;5.802;2022-08-04T03:14:18;11.90;;;6.38;;
52534;SDS011;38443;53.164;5.802;2022-08-04T03:16:59;12.85;;;5.30;;
52534;SDS011;38443;53.164;5.802;2022-08-04T03:28:17;8.82;;;5.05;;
52534;SDS011;38443;53.164;5.802;2022-08-04T03:31:02;14.32;;;5.75;;
52534;SDS011;38443;53.164;5.802;2022-08-04T03:53:47;10.63;;;5.68;;
52534;SDS011;38443;53.164;5.802;2022-08-04T03:56:46;8.52;;;5.32;;
52534;SDS011;38443;53.164;5.802;2022-08-04T03:59:39;10.50;;;5.70;;
52534;SDS011;38443;53.164;5.802;2022-08-04T04:08:16;10.05;;;5.85;;
52534;SDS011;38443;53.164;5.802;2022-08-04T04:11:19;8.57;;;5.10;;
52534;SDS011;38443;53.164;5.802;2022-08-04T04:14:03;9.40;;;5.55;;
52534;SDS011;38443;53.164;5.802;2022-08-04T04:16:36;9.00;;;5.88;;
52534;SDS011;38443;53.164;5.802;2022-08-04T04:19:42;10.55;;;5.60;;
52534;SDS011;38443;53.164;5.802;2022-08-04T04:22:41;9.52;;;5.35;;
52534;SDS011;38443;53.164;5.802;2022-08-04T04:25:16;10.35;;;5.68;;
52534;SDS011;38443;53.164;5.802;2022-08-04T04:33:18;9.32;;;5.88;;
52534;SDS011;38443;53.164;5.802;2022-08-04T04:36:29;10.48;;;5.50;;
52534;SDS011;38443;53.164;5.802;2022-08-04T04:45:19;7.82;;;5.85;;
52534;SDS011;38443;53.164;5.802;2022-08-04T04:53:37;10.45;;;6.05;;
52534;SDS011;38443;53.164;5.802;2022-08-04T04:59:07;9.38;;;6.47;;
52534;SDS011;38443;53.164;5.802;2022-08-04T05:04:24;10.52;;;6.68;;
52534;SDS011;38443;53.164;5.802;2022-08-04T05:07:26;11.15;;;5.95;;
52534;SDS011;38443;53.164;5.802;2022-08-04T05:10:30;10.55;;;6.78;;
52534;SDS011;38443;53.164;5.802;2022-08-04T05:18:43;11.68;;;6.97;;
52534;SDS011;38443;53.164;5.802;2022-08-04T05:24:02;12.52;;;7.28;;
52534;SDS011;38443;53.164;5.802;2022-08-04T05:26:34;11.65;;;6.80;;
52534;SDS011;38443;53.164;5.802;2022-08-04T05:29:12;13.57;;;7.03;;
52534;SDS011;38443;53.164;5.802;2022-08-04T05:31:48;11.00;;;6.88;;
52534;SDS011;38443;53.164;5.802;2022-08-04T05:34:19;15.90;;;7.35;;
52534;SDS011;38443;53.164;5.802;2022-08-04T05:36:48;12.65;;;6.93;;
52534;SDS011;38443;53.164;5.802;2022-08-04T05:39:24;12.73;;;7.15;;
52534;SDS011;38443;53.164;5.802;2022-08-04T05:41:51;10.00;;;7.13;;
52534;SDS011;38443;53.164;5.802;2022-08-04T05:44:18;13.68;;;7.78;;
52534;SDS011;38443;53.164;5.802;2022-08-04T05:46:47;15.80;;;7.82;;
52534;SDS011;38443;53.164;5.802;2022-08-04T05:49:14;13.57;;;7.05;;
52534;SDS011;38443;53.164;5.802;2022-08-04T05:51:41;10.20;;;6.75;;
52534;SDS011;38443;53.164;5.802;2022-08-04T05:54:08;15.13;;;7.07;;
52534;SDS011;38443;53.164;5.802;2022-08-04T05:56:35;12.52;;;7.50;;
52534;SDS011;38443;53.164;5.802;2022-08-04T05:59:03;10.98;;;6.68;;
52534;SDS011;38443;53.164;5.802;2022-08-04T06:01:29;11.80;;;7.55;;
52534;SDS011;38443;53.164;5.802;2022-08-04T06:03:59;14.18;;;7.63;;
52534;SDS011;38443;53.164;5.802;2022-08-04T06:06:26;11.18;;;7.13;;
52534;SDS011;38443;53.164;5.802;2022-08-04T06:08:54;13.30;;;7.65;;
52534;SDS011;38443;53.164;5.802;2022-08-04T06:11:20;16.13;;;7.88;;
52534;SDS011;38443;53.164;5.802;2022-08-04T06:13:56;13.35;;;7.72;;
52534;SDS011;38443;53.164;5.802;2022-08-04T06:16:24;10.48;;;7.18;;
52534;SDS011;38443;53.164;5.802;2022-08-04T06:18:53;11.27;;;7.18;;
52534;SDS011;38443;53.164;5.802;2022-08-04T06:21:22;11.75;;;7.40;;
52534;SDS011;38443;53.164;5.802;2022-08-04T06:23:51;11.98;;;8.23;;
52534;SDS011;38443;53.164;5.802;2022-08-04T06:26:20;13.43;;;7.75;;
52534;SDS011;38443;53.164;5.802;2022-08-04T06:28:48;16.90;;;7.32;;
52534;SDS011;38443;53.164;5.802;2022-08-04T06:31:16;11.98;;;7.20;;
52534;SDS011;38443;53.164;5.802;2022-08-04T06:33:57;11.38;;;6.65;;
52534;SDS011;38443;53.164;5.802;2022-08-04T06:36:26;11.95;;;6.80;;
52534;SDS011;38443;53.164;5.802;2022-08-04T06:38:53;10.13;;;6.70;;
52534;SDS011;38443;53.164;5.802;2022-08-04T06:41:19;11.27;;;7.05;;
52534;SDS011;38443;53.164;5.802;2022-08-04T06:43:46;10.43;;;6.35;;
52534;SDS011;38443;53.164;5.802;2022-08-04T06:46:12;13.27;;;6.85;;
52534;SDS011;38443;53.164;5.802;2022-08-04T06:48:39;13.43;;;6.85;;
52534;SDS011;38443;53.164;5.802;2022-08-04T06:51:07;11.00;;;7.22;;
52534;SDS011;38443;53.164;5.802;2022-08-04T06:53:33;14.23;;;7.25;;
52534;SDS011;38443;53.164;5.802;2022-08-04T06:55:58;10.32;;;6.75;;
52534;SDS011;38443;53.164;5.802;2022-08-04T06:58:25;10.68;;;6.65;;
52534;SDS011;38443;53.164;5.802;2022-08-04T07:00:54;11.10;;;6.32;;
52534;SDS011;38443;53.164;5.802;2022-08-04T07:03:25;12.77;;;6.88;;
52534;SDS011;38443;53.164;5.802;2022-08-04T07:05:52;12.23;;;7.13;;
52534;SDS011;38443;53.164;5.802;2022-08-04T07:08:18;11.55;;;7.03;;
52534;SDS011;38443;53.164;5.802;2022-08-04T07:10:45;12.30;;;6.80;;
52534;SDS011;38443;53.164;5.802;2022-08-04T07:13:11;12.50;;;6.45;;
52534;SDS011;38443;53.164;5.802;2022-08-04T07:15:38;15.43;;;6.90;;
52534;SDS011;38443;53.164;5.802;2022-08-04T07:18:05;11.25;;;7.20;;
52534;SDS011;38443;53.164;5.802;2022-08-04T07:20:31;11.82;;;7.55;;
52534;SDS011;38443;53.164;5.802;2022-08-04T07:22:57;12.07;;;7.60;;
52534;SDS011;38443;53.164;5.802;2022-08-04T07:25:25;10.40;;;7.07;;
52534;SDS011;38443;53.164;5.802;2022-08-04T07:27:51;11.20;;;6.95;;
52534;SDS011;38443;53.164;5.802;2022-08-04T07:30:16;11.13;;;6.50;;
52534;SDS011;38443;53.164;5.802;2022-08-04T07:32:43;8.77;;;5.75;;
52534;SDS011;38443;53.164;5.802;2022-08-04T07:35:10;9.85;;;6.78;;
52534;SDS011;38443;53.164;5.802;2022-08-04T07:37:37;10.40;;;6.18;;
52534;SDS011;38443;53.164;5.802;2022-08-04T07:40:02;16.50;;;5.80;;
52534;SDS011;38443;53.164;5.802;2022-08-04T07:42:29;10.95;;;6.20;;
52534;SDS011;38443;53.164;5.802;2022-08-04T07:44:54;9.43;;;6.22;;
52534;SDS011;38443;53.164;5.802;2022-08-04T07:47:20;8.93;;;6.03;;
52534;SDS011;38443;53.164;5.802;2022-08-04T07:49:46;7.95;;;5.97;;
52534;SDS011;38443;53.164;5.802;2022-08-04T07:52:11;9.15;;;5.47;;
52534;SDS011;38443;53.164;5.802;2022-08-04T07:54:37;7.63;;;5.32;;
52534;SDS011;38443;53.164;5.802;2022-08-04T07:57:04;6.35;;;5.00;;
52534;SDS011;38443;53.164;5.802;2022-08-04T07:59:29;10.50;;;5.30;;
52534;SDS011;38443;53.164;5.802;2022-08-04T08:01:57;6.13;;;4.70;;
52534;SDS011;38443;53.164;5.802;2022-08-04T08:04:24;7.75;;;5.18;;
52534;SDS011;38443;53.164;5.802;2022-08-04T08:06:50;8.38;;;4.43;;
52534;SDS011;38443;53.164;5.802;2022-08-04T08:09:16;6.85;;;4.68;;
52534;SDS011;38443;53.164;5.802;2022-08-04T08:11:46;11.00;;;4.47;;
52534;SDS011;38443;53.164;5.802;2022-08-04T08:14:13;6.22;;;4.07;;
52534;SDS011;38443;53.164;5.802;2022-08-04T08:16:40;9.05;;;4.15;;
52534;SDS011;38443;53.164;5.802;2022-08-04T08:19:05;8.52;;;4.55;;
52534;SDS011;38443;53.164;5.802;2022-08-04T08:21:31;7.75;;;3.83;;
52534;SDS011;38443;53.164;5.802;2022-08-04T08:23:57;9.13;;;4.10;;
52534;SDS011;38443;53.164;5.802;2022-08-04T08:26:23;11.45;;;4.38;;
52534;SDS011;38443;53.164;5.802;2022-08-04T08:28:49;6.60;;;3.75;;
52534;SDS011;38443;53.164;5.802;2022-08-04T08:31:15;6.82;;;3.50;;
52534;SDS011;38443;53.164;5.802;2022-08-04T08:33:40;6.28;;;3.17;;
52534;SDS011;38443;53.164;5.802;2022-08-04T08:50:20;5.40;;;2.80;;
52534;SDS011;38443;53.164;5.802;2022-08-04T08:53:19;5.93;;;2.30;;
52534;SDS011;38443;53.164;5.802;2022-08-04T08:58:51;4.00;;;2.13;;
52534;SDS011;38443;53.164;5.802;2022-08-04T09:01:26;6.47;;;2.33;;
52534;SDS011;38443;53.164;5.802;2022-08-04T09:15:11;4.25;;;2.00;;
52534;SDS011;38443;53.164;5.802;2022-08-04T09:17:50;4.13;;;1.50;;
52534;SDS011;38443;53.164;5.802;2022-08-04T09:25:53;3.33;;;1.88;;
52534;SDS011;38443;53.164;5.802;2022-08-04T09:28:47;3.17;;;1.85;;
52534;SDS011;38443;53.164;5.802;2022-08-04T09:31:20;3.30;;;2.00;;
52534;SDS011;38443;53.164;5.802;2022-08-04T09:36:31;2.72;;;1.80;;
52534;SDS011;38443;53.164;5.802;2022-08-04T09:39:02;4.00;;;2.17;;
52534;SDS011;38443;53.164;5.802;2022-08-04T09:45:02;5.38;;;2.20;;
52534;SDS011;38443;53.164;5.802;2022-08-04T09:47:39;4.10;;;2.00;;
52534;SDS011;38443;53.164;5.802;2022-08-04T09:50:34;3.88;;;2.53;;
52534;SDS011;38443;53.164;5.802;2022-08-04T09:53:15;2.92;;;1.98;;
52534;SDS011;38443;53.164;5.802;2022-08-04T10:01:22;5.30;;;2.42;;
52534;SDS011;38443;53.164;5.802;2022-08-04T10:03:50;4.72;;;2.30;;
52534;SDS011;38443;53.164;5.802;2022-08-04T10:09:25;3.05;;;2.08;;
52534;SDS011;38443;53.164;5.802;2022-08-04T10:19:28;3.90;;;2.10;;
52534;SDS011;38443;53.164;5.802;2022-08-04T10:27:45;2.85;;;1.75;;
52534;SDS011;38443;53.164;5.802;2022-08-04T10:30:16;3.67;;;2.25;;
52534;SDS011;38443;53.164;5.802;2022-08-04T10:35:43;4.30;;;2.30;;
52534;SDS011;38443;53.164;5.802;2022-08-04T10:38:21;3.45;;;1.90;;
52534;SDS011;38443;53.164;5.802;2022-08-04T10:41:17;3.40;;;1.90;;
52534;SDS011;38443;53.164;5.802;2022-08-04T10:47:03;2.70;;;1.80;;
52534;SDS011;38443;53.164;5.802;2022-08-04T10:49:53;4.10;;;2.17;;
52534;SDS011;38443;53.164;5.802;2022-08-04T10:55:14;3.08;;;1.73;;
52534;SDS011;38443;53.164;5.802;2022-08-04T10:58:06;2.28;;;1.85;;
52534;SDS011;38443;53.164;5.802;2022-08-04T11:00:38;3.72;;;2.00;;
52534;SDS011;38443;53.164;5.802;2022-08-04T11:03:22;3.60;;;2.00;;
52534;SDS011;38443;53.164;5.802;2022-08-04T11:05:54;3.70;;;1.98;;
52534;SDS011;38443;53.164;5.802;2022-08-04T11:08:25;2.65;;;1.67;;
52534;SDS011;38443;53.164;5.802;2022-08-04T11:16:26;4.38;;;1.98;;
52534;SDS011;38443;53.164;5.802;2022-08-04T11:21:42;2.20;;;1.70;;
52534;SDS011;38443;53.164;5.802;2022-08-04T11:24:24;3.10;;;1.60;;
52534;SDS011;38443;53.164;5.802;2022-08-04T11:27:10;3.17;;;1.80;;
52534;SDS011;38443;53.164;5.802;2022-08-04T11:29:50;3.35;;;1.80;;
52534;SDS011;38443;53.164;5.802;2022-08-04T11:32:19;3.67;;;1.88;;
52534;SDS011;38443;53.164;5.802;2022-08-04T11:34:56;4.63;;;1.90;;
52534;SDS011;38443;53.164;5.802;2022-08-04T11:37:44;2.47;;;1.80;;
52534;SDS011;38443;53.164;5.802;2022-08-04T11:40:22;3.00;;;2.00;;
52534;SDS011;38443;53.164;5.802;2022-08-04T11:45:44;4.95;;;2.90;;
52534;SDS011;38443;53.164;5.802;2022-08-04T11:48:18;7.15;;;3.15;;
52534;SDS011;38443;53.164;5.802;2022-08-04T11:50:49;3.47;;;1.90;;
52534;SDS011;38443;53.164;5.802;2022-08-04T11:53:20;4.03;;;2.30;;
52534;SDS011;38443;53.164;5.802;2022-08-04T11:55:49;4.47;;;2.28;;
52534;SDS011;38443;53.164;5.802;2022-08-04T11:58:16;3.60;;;2.20;;
52534;SDS011;38443;53.164;5.802;2022-08-04T12:01:02;3.10;;;2.28;;
52534;SDS011;38443;53.164;5.802;2022-08-04T12:09:06;2.95;;;1.95;;
52534;SDS011;38443;53.164;5.802;2022-08-04T12:11:39;4.70;;;2.60;;
52534;SDS011;38443;53.164;5.802;2022-08-04T12:14:27;3.15;;;1.95;;
52534;SDS011;38443;53.164;5.802;2022-08-04T12:16:59;3.60;;;2.38;;
52534;SDS011;38443;53.164;5.802;2022-08-04T12:19:31;2.42;;;1.73;;
52534;SDS011;38443;53.164;5.802;2022-08-04T12:21:58;3.05;;;1.95;;
52534;SDS011;38443;53.164;5.802;2022-08-04T12:24:38;3.58;;;2.05;;
52534;SDS011;38443;53.164;5.802;2022-08-04T12:27:14;4.70;;;2.28;;
52534;SDS011;38443;53.164;5.802;2022-08-04T12:29:41;4.85;;;1.90;;
52534;SDS011;38443;53.164;5.802;2022-08-04T12:32:16;3.65;;;2.33;;
52534;SDS011;38443;53.164;5.802;2022-08-04T12:40:06;3.53;;;2.08;;
52534;SDS011;38443;53.164;5.802;2022-08-04T12:42:43;3.40;;;1.90;;
52534;SDS011;38443;53.164;5.802;2022-08-04T12:45:17;4.28;;;2.00;;
52534;SDS011;38443;53.164;5.802;2022-08-04T12:47:45;4.18;;;2.03;;
52534;SDS011;38443;53.164;5.802;2022-08-04T12:50:13;6.03;;;2.67;;
52534;SDS011;38443;53.164;5.802;2022-08-04T12:52:41;4.65;;;2.92;;
52534;SDS011;38443;53.164;5.802;2022-08-04T12:55:08;5.95;;;2.90;;
52534;SDS011;38443;53.164;5.802;2022-08-04T12:57:35;6.38;;;2.85;;
52534;SDS011;38443;53.164;5.802;2022-08-04T13:00:03;6.28;;;2.63;;
52534;SDS011;38443;53.164;5.802;2022-08-04T13:02:29;5.50;;;3.00;;
52534;SDS011;38443;53.164;5.802;2022-08-04T13:04:59;8.23;;;3.10;;
52534;SDS011;38443;53.164;5.802;2022-08-04T13:07:34;7.50;;;3.50;;
52534;SDS011;38443;53.164;5.802;2022-08-04T13:10:10;8.60;;;3.38;;
52534;SDS011;38443;53.164;5.802;2022-08-04T13:12:37;7.00;;;3.10;;
52534;SDS011;38443;53.164;5.802;2022-08-04T13:15:23;6.65;;;2.50;;
52534;SDS011;38443;53.164;5.802;2022-08-04T13:18:00;8.60;;;2.67;;
52534;SDS011;38443;53.164;5.802;2022-08-04T13:20:28;7.32;;;2.88;;
52534;SDS011;38443;53.164;5.802;2022-08-04T13:23:03;6.90;;;2.63;;
52534;SDS011;38443;53.164;5.802;2022-08-04T13:25:29;7.13;;;3.15;;
52534;SDS011;38443;53.164;5.802;2022-08-04T13:27:55;6.60;;;2.83;;
52534;SDS011;38443;53.164;5.802;2022-08-04T13:30:22;6.03;;;2.67;;
52534;SDS011;38443;53.164;5.802;2022-08-04T13:32:51;4.28;;;2.53;;
52534;SDS011;38443;53.164;5.802;2022-08-04T13:35:19;5.72;;;2.90;;
52534;SDS011;38443;53.164;5.802;2022-08-04T13:37:45;5.78;;;2.70;;
52534;SDS011;38443;53.164;5.802;2022-08-04T13:40:11;4.45;;;2.63;;
52534;SDS011;38443;53.164;5.802;2022-08-04T13:42:39;4.93;;;2.80;;
52534;SDS011;38443;53.164;5.802;2022-08-04T13:45:10;3.80;;;2.40;;
52534;SDS011;38443;53.164;5.802;2022-08-04T13:47:36;4.60;;;2.40;;
52534;SDS011;38443;53.164;5.802;2022-08-04T13:50:05;5.65;;;2.72;;
52534;SDS011;38443;53.164;5.802;2022-08-04T13:52:43;5.10;;;2.95;;
52534;SDS011;38443;53.164;5.802;2022-08-04T13:55:23;5.97;;;2.40;;
52534;SDS011;38443;53.164;5.802;2022-08-04T13:58:13;7.35;;;2.97;;
52534;SDS011;38443;53.164;5.802;2022-08-04T14:00:52;5.30;;;2.70;;
52534;SDS011;38443;53.164;5.802;2022-08-04T14:03:35;4.38;;;2.80;;
52534;SDS011;38443;53.164;5.802;2022-08-04T14:06:12;3.33;;;2.15;;
52534;SDS011;38443;53.164;5.802;2022-08-04T14:08:45;6.47;;;2.88;;
52534;SDS011;38443;53.164;5.802;2022-08-04T14:11:12;4.38;;;2.83;;
52534;SDS011;38443;53.164;5.802;2022-08-04T14:13:38;3.95;;;2.25;;
52534;SDS011;38443;53.164;5.802;2022-08-04T14:16:14;3.78;;;2.38;;
52534;SDS011;38443;53.164;5.802;2022-08-04T14:18:41;5.68;;;2.67;;
52534;SDS011;38443;53.164;5.802;2022-08-04T14:21:14;4.55;;;2.72;;
52534;SDS011;38443;53.164;5.802;2022-08-04T14:23:47;5.13;;;2.88;;
52534;SDS011;38443;53.164;5.802;2022-08-04T14:26:22;5.05;;;2.90;;
52534;SDS011;38443;53.164;5.802;2022-08-04T14:28:53;4.88;;;2.78;;
52534;SDS011;38443;53.164;5.802;2022-08-04T14:31:23;4.22;;;2.65;;
52534;SDS011;38443;53.164;5.802;2022-08-04T14:33:51;4.07;;;2.25;;
52534;SDS011;38443;53.164;5.802;2022-08-04T14:36:17;4.47;;;2.40;;
52534;SDS011;38443;53.164;5.802;2022-08-04T14:41:22;5.03;;;2.50;;
52534;SDS011;38443;53.164;5.802;2022-08-04T14:43:57;3.35;;;1.92;;
52534;SDS011;38443;53.164;5.802;2022-08-04T14:46:26;4.78;;;2.15;;
52534;SDS011;38443;53.164;5.802;2022-08-04T14:49:11;3.40;;;2.08;;
52534;SDS011;38443;53.164;5.802;2022-08-04T14:51:41;4.50;;;2.00;;
52534;SDS011;38443;53.164;5.802;2022-08-04T14:54:15;4.82;;;2.60;;
52534;SDS011;38443;53.164;5.802;2022-08-04T14:56:41;2.88;;;2.00;;
52534;SDS011;38443;53.164;5.802;2022-08-04T14:59:16;2.65;;;1.85;;
52534;SDS011;38443;53.164;5.802;2022-08-04T15:01:44;3.15;;;2.03;;
52534;SDS011;38443;53.164;5.802;2022-08-04T15:04:10;4.40;;;1.85;;
52534;SDS011;38443;53.164;5.802;2022-08-04T15:06:37;4.22;;;2.25;;
52534;SDS011;38443;53.164;5.802;2022-08-04T15:09:07;4.15;;;2.20;;
52534;SDS011;38443;53.164;5.802;2022-08-04T15:11:34;3.25;;;2.13;;
52534;SDS011;38443;53.164;5.802;2022-08-04T15:14:01;2.92;;;2.22;;
52534;SDS011;38443;53.164;5.802;2022-08-04T15:16:27;3.25;;;2.13;;
52534;SDS011;38443;53.164;5.802;2022-08-04T15:18:54;4.75;;;2.13;;
52534;SDS011;38443;53.164;5.802;2022-08-04T15:21:20;4.90;;;2.70;;
52534;SDS011;38443;53.164;5.802;2022-08-04T15:23:48;4.25;;;2.10;;
52534;SDS011;38443;53.164;5.802;2022-08-04T15:26:16;3.85;;;2.00;;
52534;SDS011;38443;53.164;5.802;2022-08-04T15:28:52;2.80;;;2.20;;
52534;SDS011;38443;53.164;5.802;2022-08-04T15:31:21;3.97;;;2.03;;
52534;SDS011;38443;53.164;5.802;2022-08-04T15:33:49;5.20;;;2.20;;
52534;SDS011;38443;53.164;5.802;2022-08-04T15:36:20;4.75;;;2.20;;
52534;SDS011;38443;53.164;5.802;2022-08-04T15:41:55;4.18;;;2.05;;
52534;SDS011;38443;53.164;5.802;2022-08-04T15:47:21;3.00;;;1.95;;
52534;SDS011;38443;53.164;5.802;2022-08-04T15:50:00;3.67;;;2.20;;
52534;SDS011;38443;53.164;5.802;2022-08-04T15:52:27;4.57;;;2.40;;
52534;SDS011;38443;53.164;5.802;2022-08-04T15:55:28;3.80;;;1.95;;
52534;SDS011;38443;53.164;5.802;2022-08-04T15:58:04;4.15;;;2.13;;
52534;SDS011;38443;53.164;5.802;2022-08-04T16:01:16;4.30;;;2.28;;
52534;SDS011;38443;53.164;5.802;2022-08-04T16:06:00;3.78;;;2.10;;
52534;SDS011;38443;53.164;5.802;2022-08-04T16:16:26;37.03;;;23.35;;
52534;SDS011;38443;53.164;5.802;2022-08-04T16:19:15;5.25;;;3.45;;
52534;SDS011;38443;53.164;5.802;2022-08-04T16:21:51;2.95;;;2.30;;
52534;SDS011;38443;53.164;5.802;2022-08-04T16:24:34;6.95;;;3.70;;
52534;SDS011;38443;53.164;5.802;2022-08-04T16:27:05;16.95;;;12.82;;
52534;SDS011;38443;53.164;5.802;2022-08-04T16:29:35;5.22;;;3.35;;
52534;SDS011;38443;53.164;5.802;2022-08-04T16:34:34;7.00;;;2.35;;
52534;SDS011;38443;53.164;5.802;2022-08-04T16:37:03;5.78;;;3.45;;
52534;SDS011;38443;53.164;5.802;2022-08-04T16:39:31;2.72;;;1.92;;
52534;SDS011;38443;53.164;5.802;2022-08-04T16:41:57;4.65;;;2.30;;
52534;SDS011;38443;53.164;5.802;2022-08-04T16:44:29;4.65;;;3.40;;
52534;SDS011;38443;53.164;5.802;2022-08-04T16:46:59;7.05;;;3.83;;
52534;SDS011;38443;53.164;5.802;2022-08-04T16:49:26;16.45;;;13.07;;
52534;SDS011;38443;53.164;5.802;2022-08-04T16:51:53;16.48;;;13.45;;
52534;SDS011;38443;53.164;5.802;2022-08-04T16:54:24;14.60;;;13.07;;
52534;SDS011;38443;53.164;5.802;2022-08-04T16:56:52;6.75;;;4.72;;
52534;SDS011;38443;53.164;5.802;2022-08-04T16:59:19;9.70;;;8.50;;
52534;SDS011;38443;53.164;5.802;2022-08-04T17:01:48;4.68;;;3.30;;
52534;SDS011;38443;53.164;5.802;2022-08-04T17:04:16;4.57;;;3.15;;
52534;SDS011;38443;53.164;5.802;2022-08-04T17:06:42;5.10;;;2.13;;
52534;SDS011;38443;53.164;5.802;2022-08-04T17:09:12;4.68;;;2.20;;
52534;SDS011;38443;53.164;5.802;2022-08-04T17:11:39;3.35;;;2.03;;
52534;SDS011;38443;53.164;5.802;2022-08-04T17:14:06;8.23;;;5.30;;
52534;SDS011;38443;53.164;5.802;2022-08-04T17:16:36;6.75;;;2.85;;
52534;SDS011;38443;53.164;5.802;2022-08-04T17:19:04;26.95;;;18.55;;
52534;SDS011;38443;53.164;5.802;2022-08-04T17:21:32;7.82;;;4.47;;
52534;SDS011;38443;53.164;5.802;2022-08-04T17:23:59;5.82;;;3.72;;
52534;SDS011;38443;53.164;5.802;2022-08-04T17:26:27;7.13;;;3.20;;
52534;SDS011;38443;53.164;5.802;2022-08-04T17:28:54;3.85;;;3.25;;
52534;SDS011;38443;53.164;5.802;2022-08-04T17:31:21;8.00;;;4.68;;
52534;SDS011;38443;53.164;5.802;2022-08-04T17:33:50;4.93;;;2.78;;
52534;SDS011;38443;53.164;5.802;2022-08-04T17:36:17;5.07;;;2.72;;
52534;SDS011;38443;53.164;5.802;2022-08-04T17:38:50;6.32;;;4.63;;
52534;SDS011;38443;53.164;5.802;2022-08-04T17:41:18;8.35;;;4.13;;
52534;SDS011;38443;53.164;5.802;2022-08-04T17:48:54;4.32;;;2.30;;
52534;SDS011;38443;53.164;5.802;2022-08-04T17:51:20;4.60;;;2.63;;
52534;SDS011;38443;53.164;5.802;2022-08-04T17:53:46;5.00;;;2.38;;
52534;SDS011;38443;53.164;5.802;2022-08-04T17:56:41;13.25;;;5.70;;
52534;SDS011;38443;53.164;5.802;2022-08-04T18:04:31;3.63;;;2.22;;
52534;SDS011;38443;53.164;5.802;2022-08-04T18:07:08;3.42;;;2.22;;
52534;SDS011;38443;53.164;5.802;2022-08-04T18:12:08;5.30;;;2.63;;
52534;SDS011;38443;53.164;5.802;2022-08-04T18:14:37;6.82;;;2.90;;
52534;SDS011;38443;53.164;5.802;2022-08-04T18:17:07;8.07;;;3.55;;
52534;SDS011;38443;53.164;5.802;2022-08-04T18:19:33;6.72;;;5.20;;
52534;SDS011;38443;53.164;5.802;2022-08-04T18:22:00;7.75;;;2.85;;
52534;SDS011;38443;53.164;5.802;2022-08-04T18:24:27;7.28;;;2.88;;
52534;SDS011;38443;53.164;5.802;2022-08-04T18:26:54;6.85;;;4.13;;
52534;SDS011;38443;53.164;5.802;2022-08-04T18:29:19;6.35;;;3.90;;
52534;SDS011;38443;53.164;5.802;2022-08-04T18:31:45;9.10;;;4.40;;
52534;SDS011;38443;53.164;5.802;2022-08-04T18:34:10;5.32;;;3.30;;
52534;SDS011;38443;53.164;5.802;2022-08-04T18:36:36;5.80;;;3.80;;
52534;SDS011;38443;53.164;5.802;2022-08-04T18:39:03;5.78;;;2.72;;
52534;SDS011;38443;53.164;5.802;2022-08-04T18:41:30;7.05;;;3.53;;
52534;SDS011;38443;53.164;5.802;2022-08-04T18:43:57;7.45;;;3.20;;
52534;SDS011;38443;53.164;5.802;2022-08-04T18:46:22;6.90;;;4.28;;
52534;SDS011;38443;53.164;5.802;2022-08-04T18:48:48;5.18;;;2.78;;
52534;SDS011;38443;53.164;5.802;2022-08-04T18:51:14;7.05;;;3.65;;
52534;SDS011;38443;53.164;5.802;2022-08-04T18:53:39;6.95;;;2.72;;
52534;SDS011;38443;53.164;5.802;2022-08-04T18:56:05;6.88;;;3.67;;
52534;SDS011;38443;53.164;5.802;2022-08-04T18:58:30;5.15;;;3.08;;
52534;SDS011;38443;53.164;5.802;2022-08-04T19:00:56;5.65;;;2.88;;
52534;SDS011;38443;53.164;5.802;2022-08-04T19:03:21;6.72;;;3.60;;
52534;SDS011;38443;53.164;5.802;2022-08-04T19:05:47;6.75;;;3.05;;
52534;SDS011;38443;53.164;5.802;2022-08-04T19:08:12;8.02;;;3.05;;